Time;durP1;ratioP1;P1;durP2;ratioP2;P2;SDS_P1;SDS_P2;PMS_P1;PMS_P2;Temp;Humidity;BMP_temperature;BMP_pressure;BME280_temperature;BME280_humidity;BME280_pressure;Samples;Min_cycle;Max_cycle;Signal;HPM_P1;HPM_P2
2024/03/23 00:01:56;;;;;;;4.00;3.07;;;;;;;12.09;64.35;98141.50;5113105;28;41921;-77
2024/03/23 00:04:27;;;;;;;4.77;3.60;;;;;;;12.03;64.00;98125.22;5112377;28;42001;-78
2024/03/23 00:06:57;;;;;;;3.93;3.37;;;;;;;11.98;64.53;98119.44;5095251;28;41027;-77
2024/03/23 00:09:29;;;;;;;3.80;3.20;;;;;;;11.95;64.29;98123.19;5112226;28;43216;-78
2024/03/23 00:11:59;;;;;;;4.37;3.70;;;;;;;11.90;64.37;98116.53;5095419;28;42342;-77
2024/03/23 00:14:30;;;;;;;4.13;2.73;;;;;;;11.83;64.20;98122.34;5113080;28;39841;-78
2024/03/23 00:17:00;;;;;;;3.17;2.87;;;;;;;11.79;64.25;98107.63;5094920;28;42211;-77
2024/03/23 00:19:32;;;;;;;3.87;3.43;;;;;;;11.76;64.65;98115.81;5111609;28;42865;-79
2024/03/23 00:22:02;;;;;;;3.57;3.27;;;;;;;11.73;64.52;98117.88;5094779;28;41835;-77
2024/03/23 00:24:33;;;;;;;3.93;3.37;;;;;;;11.69;64.32;98116.41;5112169;28;39711;-77
2024/03/23 00:27:04;;;;;;;3.47;3.07;;;;;;;11.65;64.42;98110.50;5111726;28;40641;-77
2024/03/23 00:29:36;;;;;;;5.47;3.33;;;;;;;11.61;65.37;98101.13;5109652;28;43415;-77
2024/03/23 00:32:06;;;;;;;4.83;3.43;;;;;;;11.59;65.01;98105.69;5112510;27;41978;-77
2024/03/23 00:34:37;;;;;;;3.93;3.50;;;;;;;11.57;64.91;98101.47;5112058;28;40928;-78
2024/03/23 00:37:08;;;;;;;4.60;3.80;;;;;;;11.53;65.11;98098.19;5113511;28;42413;-77
2024/03/23 00:39:39;;;;;;;3.73;3.43;;;;;;;11.49;64.88;98088.81;5112097;28;42771;-78
2024/03/23 00:42:09;;;;;;;5.07;3.53;;;;;;;11.45;64.72;98079.41;5111622;28;41352;-77
2024/03/23 00:44:40;;;;;;;5.33;3.30;;;;;;;11.40;64.58;98078.91;5112024;28;38601;-78
2024/03/23 00:47:11;;;;;;;3.20;2.90;;;;;;;11.32;64.80;98070.72;5112198;28;42423;-78
2024/03/23 00:49:42;;;;;;;4.60;3.13;;;;;;;11.28;64.84;98067.47;5113186;28;42675;-78
2024/03/23 00:52:12;;;;;;;4.50;3.70;;;;;;;11.24;64.56;98070.50;5094681;28;42129;-77
2024/03/23 00:54:41;;;;;;;3.63;2.83;;;;;;;11.18;64.61;98063.84;5111607;28;40342;-78
2024/03/23 00:57:07;;;;;;;3.67;3.10;;;;;;;11.04;64.93;98051.66;5094731;28;40759;-78
2024/03/23 00:59:35;;;;;;;3.83;3.33;;;;;;;11.07;65.53;98062.03;5111162;28;41779;-78
2024/03/23 01:02:01;;;;;;;4.37;3.60;;;;;;;11.02;65.40;98053.56;5111759;28;42271;-78
2024/03/23 01:04:28;;;;;;;6.00;3.57;;;;;;;10.93;65.62;98032.25;5095433;28;38815;-78
2024/03/23 01:06:55;;;;;;;4.13;3.30;;;;;;;10.98;66.71;98028.31;5116481;28;40625;-77
2024/03/23 01:09:22;;;;;;;5.43;3.97;;;;;;;10.93;66.49;98022.50;5112971;28;43033;-77
2024/03/23 01:11:50;;;;;;;4.47;3.70;;;;;;;10.91;66.34;98027.06;5111955;28;42240;-77
2024/03/23 01:14:18;;;;;;;3.90;3.47;;;;;;;10.78;66.68;98002.50;5094841;28;39216;-76
2024/03/23 01:16:44;;;;;;;5.90;4.70;;;;;;;10.89;67.78;98010.44;5111142;28;42666;-77
2024/03/23 01:19:12;;;;;;;5.83;4.13;;;;;;;10.91;67.56;98007.69;5111637;28;43466;-77
2024/03/23 01:21:38;;;;;;;5.43;4.57;;;;;;;10.88;66.86;98006.13;5094149;28;42640;-77
2024/03/23 01:24:06;;;;;;;4.90;4.30;;;;;;;10.80;67.00;98006.72;5111462;28;38907;-77
2024/03/23 01:26:33;;;;;;;6.20;4.73;;;;;;;10.73;66.74;97997.56;5112304;28;41612;-77
2024/03/23 01:29:01;;;;;;;5.70;4.27;;;;;;;10.71;66.75;97998.63;5094373;28;41652;-78
2024/03/23 01:31:28;;;;;;;4.57;3.70;;;;;;;10.69;66.52;97988.16;5111535;28;43100;-78
2024/03/23 01:33:55;;;;;;;3.67;3.10;;;;;;;10.66;66.70;97982.25;5112868;28;40710;-77
2024/03/23 01:36:22;;;;;;;4.50;3.60;;;;;;;10.61;66.26;97973.84;5112291;28;41806;-77
2024/03/23 01:38:49;;;;;;;4.47;3.60;;;;;;;10.56;66.06;97979.47;5111155;28;41917;-77
2024/03/23 01:41:15;;;;;;;4.37;3.90;;;;;;;10.50;66.31;97968.53;5110617;28;42064;-77
2024/03/23 01:43:43;;;;;;;4.20;3.30;;;;;;;10.44;66.48;97970.66;5095475;28;39826;-77
2024/03/23 01:46:11;;;;;;;4.10;3.50;;;;;;;10.38;66.48;97962.34;5114357;28;41736;-77
2024/03/23 01:48:38;;;;;;;6.27;4.10;;;;;;;10.31;66.29;97948.72;5114872;28;42498;-77
2024/03/23 01:51:05;;;;;;;4.73;4.00;;;;;;;10.34;66.27;97956.44;5115609;28;43281;-77
2024/03/23 01:53:32;;;;;;;6.03;3.50;;;;;;;10.28;66.06;97941.00;5116197;28;40719;-77
2024/03/23 01:55:59;;;;;;;4.93;3.67;;;;;;;10.41;66.30;97954.16;5097207;28;41921;-77
2024/03/23 01:58:27;;;;;;;4.00;3.70;;;;;;;10.43;66.45;97939.84;5114651;28;41779;-77
2024/03/23 02:00:53;;;;;;;4.00;3.60;;;;;;;10.49;66.31;97935.06;5097459;28;41100;-77
2024/03/23 02:03:26;;;;;;;4.60;3.40;;;;;;;10.52;66.10;97933.00;5115994;28;40786;-77
2024/03/23 02:05:53;;;;;;;5.03;3.73;;;;;;;10.56;66.22;97930.97;5114020;28;40547;-76
2024/03/23 02:08:22;;;;;;;5.10;4.40;;;;;;;10.62;66.11;97928.72;5097536;28;43241;-77
2024/03/23 02:10:48;;;;;;;6.10;4.63;;;;;;;10.69;65.86;97929.06;5115196;28;42048;-77
2024/03/23 02:13:16;;;;;;;5.40;4.57;;;;;;;10.76;66.53;97919.66;5114581;28;40710;-77
2024/03/23 02:15:42;;;;;;;6.37;5.10;;;;;;;10.75;67.25;97905.63;5097429;28;40333;-77
2024/03/23 02:18:10;;;;;;;6.03;5.03;;;;;;;10.87;66.98;97916.19;5114265;28;43193;-77
2024/03/23 02:20:38;;;;;;;6.93;5.27;;;;;;;10.76;68.63;97883.44;5115629;28;43180;-77
2024/03/23 02:23:07;;;;;;;5.63;5.10;;;;;;;10.92;67.77;97893.66;5097250;28;39129;-77
2024/03/23 02:25:33;;;;;;;7.20;5.57;;;;;;;10.96;68.10;97878.38;5115034;28;42958;-77
2024/03/23 02:28:01;;;;;;;6.97;5.77;;;;;;;10.99;68.27;97873.69;5114330;28;41118;-77
2024/03/23 02:30:27;;;;;;;7.80;5.33;;;;;;;11.02;68.17;97868.13;5112944;28;42298;-77
2024/03/23 02:32:55;;;;;;;5.47;4.80;;;;;;;11.02;67.97;97865.47;5097141;28;40612;-77
2024/03/23 02:35:21;;;;;;;5.03;4.53;;;;;;;11.04;68.56;97865.34;5113877;28;40709;-77
2024/03/23 02:37:49;;;;;;;5.70;4.87;;;;;;;11.07;68.14;97860.66;5114053;27;42008;-78
2024/03/23 02:40:17;;;;;;;5.87;4.73;;;;;;;11.11;68.07;97851.50;5113781;28;43195;-78
2024/03/23 02:42:45;;;;;;;5.70;4.40;;;;;;;11.16;68.81;97838.72;5113958;28;39113;-77
2024/03/23 02:45:11;;;;;;;5.93;4.77;;;;;;;11.21;68.73;97841.00;5096915;28;41974;-78
2024/03/23 02:47:39;;;;;;;5.30;4.53;;;;;;;11.31;68.64;97846.41;5115171;28;42719;-78
2024/03/23 02:50:06;;;;;;;4.50;4.10;;;;;;;11.41;68.44;97842.00;5113581;28;42844;-78
2024/03/23 02:52:34;;;;;;;5.33;4.67;;;;;;;11.50;68.56;97841.25;5114063;28;40211;-77
2024/03/23 02:55:01;;;;;;;4.47;4.03;;;;;;;11.58;68.76;97830.88;5095655;28;42064;-78
2024/03/23 02:57:30;;;;;;;5.53;4.87;;;;;;;11.62;68.24;97824.31;5113044;28;41687;-78
2024/03/23 02:59:57;;;;;;;8.13;5.03;;;;;;;11.63;67.78;97823.38;5114478;28;43237;-77
2024/03/23 03:02:24;;;;;;;5.20;4.70;;;;;;;11.62;67.65;97820.88;5113887;28;39185;-78
2024/03/23 03:04:50;;;;;;;6.80;5.87;;;;;;;11.58;68.49;97812.31;5096414;28;41673;-78
2024/03/23 03:07:18;;;;;;;7.67;6.33;;;;;;;11.59;69.17;97808.69;5113804;28;43801;-78
2024/03/23 03:09:44;;;;;;;6.13;4.87;;;;;;;11.63;68.87;97812.75;5113046;28;41205;-78
2024/03/23 03:12:12;;;;;;;6.67;5.23;;;;;;;11.70;69.90;97805.16;5114916;28;40007;-78
2024/03/23 03:14:40;;;;;;;5.20;4.67;;;;;;;11.75;69.67;97803.81;5114267;28;42662;-78
2024/03/23 03:17:07;;;;;;;5.00;4.50;;;;;;;11.80;68.93;97796.31;5114742;28;42844;-77
2024/03/23 03:19:34;;;;;;;6.17;3.90;;;;;;;11.85;69.22;97786.16;5095521;28;41089;-77
2024/03/23 03:22:01;;;;;;;6.13;5.33;;;;;;;11.84;69.11;97776.53;5114934;28;41045;-77
2024/03/23 03:24:27;;;;;;;5.10;4.60;;;;;;;11.84;69.43;97765.91;5095922;28;40811;-78
2024/03/23 03:26:55;;;;;;;5.43;4.80;;;;;;;11.84;69.08;97776.53;5096140;28;42145;-78
2024/03/23 03:29:21;;;;;;;4.93;4.30;;;;;;;11.74;69.17;97759.69;5113170;28;43230;-78
2024/03/23 03:31:51;;;;;;;7.40;4.63;;;;;;;11.84;69.60;97781.84;5112888;28;40045;-77
2024/03/23 03:34:17;;;;;;;5.90;4.60;;;;;;;11.82;70.37;97759.06;5096036;28;41032;-78
2024/03/23 03:36:44;;;;;;;5.67;5.07;;;;;;;11.84;70.28;97760.63;5112786;28;41834;-78
2024/03/23 03:39:11;;;;;;;5.90;5.27;;;;;;;11.94;71.10;97767.78;5113085;28;42850;-77
2024/03/23 03:41:39;;;;;;;6.27;4.60;;;;;;;12.00;70.75;97770.72;5112872;28;39990;-77
2024/03/23 03:44:06;;;;;;;5.70;4.67;;;;;;;12.07;70.71;97766.59;5114181;28;42646;-78
2024/03/23 03:46:34;;;;;;;6.63;5.17;;;;;;;12.14;70.51;97772.22;5095568;28;42656;-77
2024/03/23 03:49:02;;;;;;;5.90;4.80;;;;;;;12.20;70.11;97774.34;5113015;28;42259;-78
2024/03/23 03:51:29;;;;;;;5.57;4.90;;;;;;;12.22;70.38;97765.28;5112875;28;40035;-77
2024/03/23 03:53:55;;;;;;;5.27;4.77;;;;;;;11.93;71.15;97697.97;5095882;28;43172;-77
2024/03/23 03:56:23;;;;;;;9.10;5.70;;;;;;;12.11;71.00;97736.19;5099745;28;42570;-78
2024/03/23 03:58:49;;;;;;;5.90;5.07;;;;;;;12.22;70.52;97738.75;5120045;28;42116;-78
2024/03/23 04:01:17;;;;;;;5.67;4.50;;;;;;;12.39;70.61;97755.00;5095332;28;39003;-77
2024/03/23 04:03:43;;;;;;;5.03;4.50;;;;;;;12.43;70.73;97756.41;5095699;28;40589;-77
2024/03/23 04:06:12;;;;;;;7.40;5.37;;;;;;;12.44;70.62;97748.31;5112580;27;42794;-77
2024/03/23 04:08:39;;;;;;;7.47;5.20;;;;;;;12.40;72.93;97730.97;5113612;28;42952;-77
2024/03/23 04:11:06;;;;;;;7.10;5.20;;;;;;;12.41;73.00;97731.81;5112208;28;40974;-77
2024/03/23 04:13:33;;;;;;;8.23;5.87;;;;;;;12.37;74.47;97723.25;5095598;28;40552;-77
2024/03/23 04:16:01;;;;;;;7.57;5.43;;;;;;;12.29;75.88;97714.31;5112950;28;43802;-77
2024/03/23 04:18:27;;;;;;;6.77;5.47;;;;;;;12.31;75.98;97721.16;5094375;28;44066;-77
2024/03/23 04:20:55;;;;;;;6.10;5.50;;;;;;;12.27;77.06;97718.91;5111133;28;39974;-77
2024/03/23 04:23:22;;;;;;;6.20;5.30;;;;;;;11.95;78.22;97660.69;5111552;28;43005;-78
2024/03/23 04:25:51;;;;;;;7.73;5.00;;;;;;;12.16;78.18;97703.91;5094480;28;41746;-77
2024/03/23 04:28:18;;;;;;;6.50;5.13;;;;;;;12.03;78.25;97684.72;5113599;28;42089;-77
2024/03/23 04:30:45;;;;;;;7.40;5.57;;;;;;;12.07;79.44;97694.94;5111379;28;38512;-77
2024/03/23 04:33:12;;;;;;;5.93;4.77;;;;;;;11.96;78.23;97684.44;5094739;28;41468;-77
2024/03/23 04:35:39;;;;;;;5.50;4.70;;;;;;;12.10;77.85;97696.50;5111893;28;43718;-78
2024/03/23 04:38:07;;;;;;;5.23;4.17;;;;;;;12.12;77.88;97691.88;5112420;28;41268;-77
2024/03/23 04:40:36;;;;;;;7.03;5.37;;;;;;;12.17;77.56;97687.88;5111477;28;39869;-78
2024/03/23 04:43:04;;;;;;;5.87;5.27;;;;;;;12.23;78.31;97681.19;5112088;28;43517;-77
2024/03/23 04:45:31;;;;;;;6.43;5.30;;;;;;;12.21;78.40;97678.66;5095100;28;44561;-78
2024/03/23 04:47:59;;;;;;;7.67;5.63;;;;;;;12.27;78.88;97682.59;5113230;28;42483;-78
2024/03/23 04:50:26;;;;;;;6.50;4.90;;;;;;;12.30;78.38;97690.28;5113151;28;40999;-76
2024/03/23 04:52:54;;;;;;;5.90;5.07;;;;;;;12.32;78.30;97691.00;5112054;28;41556;-78
2024/03/23 04:55:22;;;;;;;6.70;5.00;;;;;;;12.36;78.07;97691.56;5094454;28;44204;-79
2024/03/23 04:57:50;;;;;;;5.93;5.27;;;;;;;12.34;77.61;97683.75;5111818;28;43039;-78
2024/03/23 05:00:18;;;;;;;6.13;5.07;;;;;;;12.34;77.49;97677.59;5110923;28;40828;-78
2024/03/23 05:02:45;;;;;;;5.33;4.70;;;;;;;12.35;77.20;97673.97;5111771;28;42687;-77
2024/03/23 05:05:13;;;;;;;5.80;5.10;;;;;;;12.34;76.99;97682.91;5094257;28;45140;-77
2024/03/23 05:07:39;;;;;;;7.13;4.87;;;;;;;12.36;76.99;97671.16;5111627;28;42023;-77
2024/03/23 05:10:10;;;;;;;5.40;4.60;;;;;;;12.32;76.54;97658.28;5112645;28;40269;-78
2024/03/23 05:12:36;;;;;;;6.20;4.97;;;;;;;12.33;75.97;97655.50;5111831;28;42443;-77
2024/03/23 05:15:07;;;;;;;5.70;4.83;;;;;;;12.42;76.19;97675.09;5111398;28;42878;-78
2024/03/23 05:17:34;;;;;;;6.20;5.13;;;;;;;12.40;75.73;97677.03;5112463;28;41679;-78
2024/03/23 05:20:02;;;;;;;5.60;4.30;;;;;;;12.39;75.42;97665.56;5111162;28;38865;-77
2024/03/23 05:22:28;;;;;;;6.43;4.87;;;;;;;12.37;76.24;97643.63;5094393;28;41064;-78
2024/03/23 05:24:55;;;;;;;5.50;4.50;;;;;;;12.39;75.63;97654.94;5110958;28;43296;-77
2024/03/23 05:27:22;;;;;;;4.57;4.00;;;;;;;12.42;74.97;97662.66;5111504;28;42509;-78
2024/03/23 05:29:50;;;;;;;5.50;4.00;;;;;;;12.39;74.99;97659.41;5110684;28;40280;-78
2024/03/23 05:32:18;;;;;;;6.90;5.33;;;;;;;12.43;75.34;97674.94;5109395;28;41643;-78
2024/03/23 05:34:45;;;;;;;5.47;4.93;;;;;;;12.42;75.93;97686.53;5111317;28;43751;-78
2024/03/23 05:37:11;;;;;;;5.50;4.77;;;;;;;12.44;76.23;97679.28;5111567;28;41138;-78
2024/03/23 05:39:39;;;;;;;6.83;5.17;;;;;;;12.50;75.80;97686.69;5110955;28;40274;-78
2024/03/23 05:42:06;;;;;;;8.33;5.90;;;;;;;12.57;75.94;97673.72;5111240;28;41459;-77
2024/03/23 05:44:33;;;;;;;8.17;6.37;;;;;;;12.65;75.82;97681.00;5112232;28;43823;-78
2024/03/23 05:46:59;;;;;;;9.20;5.63;;;;;;;12.73;75.48;97682.00;5110945;28;42385;-78
2024/03/23 05:49:28;;;;;;;7.00;5.70;;;;;;;12.79;74.73;97669.97;5094001;28;39889;-77
2024/03/23 05:51:55;;;;;;;6.93;5.60;;;;;;;12.76;74.74;97672.91;5110799;28;42737;-78
2024/03/23 05:54:22;;;;;;;8.97;6.80;;;;;;;12.83;72.88;97689.97;5110957;28;44257;-78
2024/03/23 05:56:49;;;;;;;10.27;6.60;;;;;;;12.89;71.75;97706.19;5093733;28;42451;-78
2024/03/23 05:59:16;;;;;;;8.73;6.53;;;;;;;12.97;71.27;97710.84;5111869;28;40083;-78
2024/03/23 06:01:42;;;;;;;9.13;6.40;;;;;;;13.03;69.85;97722.72;5092996;28;42994;-79
2024/03/23 06:04:10;;;;;;;8.47;6.03;;;;;;;12.99;68.96;97726.63;5111837;28;43015;-77
2024/03/23 06:06:38;;;;;;;6.87;5.33;;;;;;;12.99;68.90;97748.72;5111746;28;42976;-78
2024/03/23 06:09:05;;;;;;;9.60;5.97;;;;;;;13.01;69.21;97740.59;5110285;28;39873;-78
2024/03/23 06:11:32;;;;;;;6.47;4.80;;;;;;;12.93;69.30;97736.84;5110110;28;42532;-78
2024/03/23 06:13:59;;;;;;;4.97;4.40;;;;;;;12.89;70.29;97718.63;5110438;28;43822;-78
2024/03/23 06:16:27;;;;;;;7.47;4.00;;;;;;;12.75;72.42;97721.69;5111479;28;42230;-78
2024/03/23 06:18:54;;;;;;;5.20;4.17;;;;;;;12.59;74.01;97723.06;5093804;28;40171;-78
2024/03/23 06:21:21;;;;;;;6.07;4.83;;;;;;;12.50;74.86;97736.31;5110119;28;42075;-78
2024/03/23 06:23:52;;;;;;;5.83;4.33;;;;;;;12.26;76.50;97722.53;5111747;28;43819;-77
2024/03/23 06:26:19;;;;;;;6.37;4.37;;;;;;;12.29;77.52;97748.81;5109202;28;43401;-78
2024/03/23 06:28:47;;;;;;;4.83;4.07;;;;;;;12.21;77.34;97754.78;5110662;27;39211;-77
2024/03/23 06:31:13;;;;;;;4.50;3.33;;;;;;;12.13;78.07;97741.31;5095344;28;42601;-77
2024/03/23 06:33:41;;;;;;;4.63;3.70;;;;;;;12.21;78.19;97746.84;5096522;28;43379;-78
2024/03/23 06:36:09;;;;;;;3.83;2.90;;;;;;;12.13;76.90;97765.22;5095925;28;42328;-78
2024/03/23 06:38:37;;;;;;;3.43;2.70;;;;;;;12.04;76.61;97776.63;5115061;28;41011;-78
2024/03/23 06:41:06;;;;;;;3.77;2.87;;;;;;;12.11;76.27;97781.28;5113140;28;40393;-78
2024/03/23 06:43:33;;;;;;;4.33;3.07;;;;;;;12.19;75.98;97797.41;5113853;28;41661;-78
2024/03/23 06:45:59;;;;;;;3.90;3.13;;;;;;;12.24;75.59;97815.56;5096254;28;41883;-78
2024/03/23 06:48:27;;;;;;;3.27;2.77;;;;;;;12.23;75.28;97819.22;5119589;28;40014;-78
2024/03/23 06:50:56;;;;;;;4.27;3.43;;;;;;;12.29;74.96;97812.53;5098973;28;40677;-77
2024/03/23 06:53:24;;;;;;;4.70;3.20;;;;;;;12.33;75.16;97819.25;5113727;28;43642;-78
2024/03/23 06:55:52;;;;;;;3.43;3.10;;;;;;;12.30;74.14;97809.75;5113456;28;42363;-77
2024/03/23 06:58:22;;;;;;;3.50;2.97;;;;;;;12.36;74.18;97819.84;5113278;28;39077;-77
2024/03/23 07:00:48;;;;;;;5.43;3.30;;;;;;;12.29;72.35;97853.19;5113017;28;41731;-79
2024/03/23 07:03:16;;;;;;;4.60;2.80;;;;;;;12.25;71.91;97843.78;5112923;28;44408;-77
2024/03/23 07:05:42;;;;;;;4.63;3.50;;;;;;;12.19;71.42;97852.28;5114167;28;42262;-77
2024/03/23 07:08:10;;;;;;;4.30;2.63;;;;;;;12.04;70.89;97866.84;5113047;28;39039;-78
2024/03/23 07:10:39;;;;;;;2.77;2.17;;;;;;;11.98;70.42;97878.84;5095631;28;40980;-78
2024/03/23 07:13:06;;;;;;;3.10;2.30;;;;;;;11.86;70.11;97901.09;5095903;28;44832;-78
2024/03/23 07:15:34;;;;;;;4.00;2.23;;;;;;;11.79;70.68;97911.34;5114036;28;43221;-79
2024/03/23 07:18:02;;;;;;;2.80;2.23;;;;;;;11.67;70.81;97917.63;5114530;28;40092;-77
2024/03/23 07:20:31;;;;;;;4.10;2.27;;;;;;;11.63;70.18;97925.94;5095536;28;41901;-77
2024/03/23 07:22:58;;;;;;;1.70;1.47;;;;;;;11.48;69.67;97934.19;5113282;28;42917;-78
2024/03/23 07:25:26;;;;;;;2.37;1.80;;;;;;;11.46;69.93;97937.94;5095126;28;41113;-78
2024/03/23 07:27:54;;;;;;;1.73;1.50;;;;;;;11.35;69.82;97922.06;5112949;28;39871;-77
2024/03/23 07:30:20;;;;;;;2.27;1.60;;;;;;;11.39;69.74;97969.38;5113445;28;42678;-78
2024/03/23 07:32:49;;;;;;;1.57;1.30;;;;;;;11.40;69.78;97972.88;5112836;28;43125;-78
2024/03/23 07:35:15;;;;;;;2.70;1.20;;;;;;;11.40;70.29;97989.63;5095439;28;40952;-77
2024/03/23 07:37:43;;;;;;;2.40;1.57;;;;;;;11.38;70.39;97986.25;5112665;28;38911;-78
2024/03/23 07:40:11;;;;;;;1.47;0.93;;;;;;;11.34;69.51;97998.09;5112377;27;40552;-78
2024/03/23 07:42:39;;;;;;;1.70;0.97;;;;;;;11.21;68.72;98010.59;5095782;28;41818;-78
2024/03/23 07:45:06;;;;;;;1.13;0.87;;;;;;;11.09;68.83;98023.00;5113734;28;42278;-78
2024/03/23 07:47:33;;;;;;;0.67;0.60;;;;;;;11.23;68.47;98044.94;5114374;28;40123;-78
2024/03/23 07:50:01;;;;;;;0.73;0.70;;;;;;;11.41;68.19;98038.19;5113590;28;42039;-79
2024/03/23 07:52:29;;;;;;;0.73;0.73;;;;;;;11.69;67.61;98053.59;5095675;28;41510;-78
2024/03/23 07:54:56;;;;;;;0.50;0.50;;;;;;;11.86;66.45;98061.09;5112514;28;42237;-78
2024/03/23 07:57:23;;;;;;;0.40;0.40;;;;;;;11.65;64.62;98073.38;5112449;28;40494;-78
2024/03/23 07:59:50;;;;;;;0.37;0.37;;;;;;;11.57;64.47;98096.16;5111373;28;42274;-78
2024/03/23 08:02:17;;;;;;;1.70;1.00;;;;;;;11.42;64.26;98108.81;5112454;28;42736;-78
2024/03/23 08:04:44;;;;;;;0.50;0.40;;;;;;;11.28;64.10;98119.63;5112121;28;41842;-79
2024/03/23 08:07:12;;;;;;;0.30;0.30;;;;;;;11.28;64.08;98114.31;5112295;28;39042;-78
2024/03/23 08:09:40;;;;;;;0.57;0.43;;;;;;;11.29;64.56;98076.25;5112179;28;42202;-79
2024/03/23 08:12:07;;;;;;;0.30;0.30;;;;;;;11.70;63.66;98124.25;5112748;28;44012;-80
2024/03/23 08:14:34;;;;;;;0.20;0.20;;;;;;;11.44;62.44;98112.19;5112321;28;41138;-78
2024/03/23 08:17:01;;;;;;;0.90;0.30;;;;;;;11.63;62.85;98162.81;5095539;28;40050;-78
2024/03/23 08:19:28;;;;;;;0.30;0.30;;;;;;;11.65;63.05;98173.31;5112101;28;41728;-81
2024/03/23 08:21:55;;;;;;;0.30;0.30;;;;;;;11.66;63.11;98181.13;5113671;28;42788;-82
2024/03/23 08:24:23;;;;;;;0.20;0.20;;;;;;;11.66;62.01;98169.69;5112212;28;43642;-78
2024/03/23 08:26:50;;;;;;;0.27;0.27;;;;;;;11.63;61.98;98177.88;5113553;28;39909;-82
2024/03/23 08:29:17;;;;;;;0.30;0.30;;;;;;;11.74;62.00;98194.69;5112151;28;41809;-81
2024/03/23 08:31:44;;;;;;;0.20;0.20;;;;;;;11.78;61.35;98206.75;5112960;28;43045;-82
2024/03/23 08:34:11;;;;;;;0.20;0.20;;;;;;;11.77;61.14;98210.34;5113328;28;43190;-79
2024/03/23 08:36:38;;;;;;;0.50;0.30;;;;;;;11.76;61.12;98224.59;5113280;28;40970;-79
2024/03/23 08:39:06;;;;;;;0.20;0.20;;;;;;;11.75;61.10;98224.66;5112910;28;20222;-82
2024/03/23 08:41:34;;;;;;;0.20;0.20;;;;;;;11.63;60.64;98239.72;5094606;28;42840;-81
2024/03/23 08:44:01;;;;;;;0.20;0.20;;;;;;;11.66;61.63;98236.84;5113156;28;43251;-78
2024/03/23 08:46:28;;;;;;;0.30;0.30;;;;;;;11.71;61.20;98237.34;5112008;28;39986;-79
2024/03/23 08:48:54;;;;;;;0.40;0.40;;;;;;;11.82;61.13;98233.88;5094997;28;41654;-81
2024/03/23 08:51:22;;;;;;;0.23;0.23;;;;;;;11.81;60.94;98248.13;5111528;28;43304;-80
2024/03/23 08:53:48;;;;;;;0.40;0.40;;;;;;;11.80;60.54;98262.34;5112032;28;42335;-80
2024/03/23 08:56:17;;;;;;;0.40;0.40;;;;;;;11.63;60.14;98250.31;5094105;28;38784;-82
2024/03/23 08:58:45;;;;;;;0.63;0.30;;;;;;;11.63;60.02;98265.38;5111738;28;41931;-83
2024/03/23 09:01:14;;;;;;;0.40;0.40;;;;;;;11.54;60.15;98264.28;5111137;28;42981;-81
2024/03/23 09:03:40;;;;;;;1.53;0.60;;;;;;;11.53;59.22;98265.25;5111507;28;41348;-83
2024/03/23 09:06:09;;;;;;;1.10;0.67;;;;;;;11.74;58.11;98289.31;5094606;28;41310;-80
2024/03/23 09:08:36;;;;;;;0.47;0.47;;;;;;;11.91;58.71;98291.53;5094641;28;44348;-82
2024/03/23 09:11:08;;;;;;;1.17;0.70;;;;;;;12.16;57.25;98290.50;5112482;28;43500;-83
2024/03/23 09:13:35;;;;;;;1.30;0.57;;;;;;;12.50;55.83;98329.34;5094453;28;42634;-82
2024/03/23 09:16:05;;;;;;;1.03;0.70;;;;;;;12.82;55.83;98333.94;5094617;28;41781;-79
2024/03/23 09:18:33;;;;;;;1.90;0.63;;;;;;;12.84;55.03;98348.81;5112987;28;42214;-77
2024/03/23 09:21:00;;;;;;;2.00;0.87;;;;;;;12.67;54.20;98343.97;5110868;28;44419;-79
2024/03/23 09:23:27;;;;;;;0.80;0.50;;;;;;;12.53;54.54;98342.41;5111273;28;42179;-79
2024/03/23 09:25:54;;;;;;;1.17;0.60;;;;;;;12.65;54.80;98345.06;5110986;28;40138;-82
2024/03/23 09:28:20;;;;;;;1.27;0.67;;;;;;;12.73;55.09;98350.63;5111187;28;42619;-81
2024/03/23 09:30:48;;;;;;;0.87;0.43;;;;;;;12.79;54.88;98358.09;5110831;28;42653;-80
2024/03/23 09:33:16;;;;;;;1.87;0.70;;;;;;;12.82;54.91;98369.34;5094386;28;42303;-77
2024/03/23 09:35:45;;;;;;;0.90;0.60;;;;;;;12.86;54.13;98338.03;5111270;28;40304;-80
2024/03/23 09:38:11;;;;;;;0.90;0.70;;;;;;;13.98;52.91;98366.00;5092544;28;40758;-79
2024/03/23 09:40:42;;;;;;;1.67;0.83;;;;;;;14.32;50.12;98385.31;5109909;28;43199;-82
2024/03/23 09:43:09;;;;;;;2.73;1.00;;;;;;;14.33;49.54;98387.00;5107451;28;42580;-81
2024/03/23 09:45:39;;;;;;;1.40;0.90;;;;;;;14.14;49.30;98394.84;5092008;28;40847;-81
2024/03/23 09:48:08;;;;;;;1.57;0.90;;;;;;;14.13;50.66;98381.66;5095920;28;41864;-81
2024/03/23 09:50:39;;;;;;;1.27;1.00;;;;;;;15.37;48.30;98393.91;5112022;28;43474;-83
2024/03/23 09:53:07;;;;;;;2.83;1.00;;;;;;;16.20;46.28;98397.91;5111690;28;42063;-79
2024/03/23 09:55:35;;;;;;;3.17;0.93;;;;;;;16.74;44.97;98398.13;5127891;27;40787;-81
2024/03/23 09:58:01;;;;;;;1.53;1.10;;;;;;;16.92;43.92;98408.06;5110282;28;42211;-81
2024/03/23 10:00:29;;;;;;;2.63;1.20;;;;;;;16.86;43.17;98407.66;5109549;28;44260;-82
2024/03/23 10:02:56;;;;;;;1.27;0.90;;;;;;;16.52;42.93;98407.28;5111450;27;43172;-82
2024/03/23 10:05:24;;;;;;;2.70;1.00;;;;;;;16.40;43.02;98421.81;5113646;28;40045;-80
2024/03/23 10:07:52;;;;;;;4.67;1.30;;;;;;;16.30;43.40;98420.13;5097135;28;42320;-82
2024/03/23 10:10:21;;;;;;;2.07;1.30;;;;;;;16.08;43.00;98432.78;5114052;28;43650;-79
2024/03/23 10:12:50;;;;;;;1.47;0.87;;;;;;;16.15;43.37;98428.56;5115072;28;42090;-80
2024/03/23 10:15:22;;;;;;;1.33;1.00;;;;;;;16.19;43.77;98422.97;5092438;28;39777;-82
2024/03/23 10:17:49;;;;;;;2.07;1.07;;;;;;;16.29;43.52;98418.44;5110015;28;42916;-83
2024/03/23 10:20:22;;;;;;;1.90;1.40;;;;;;;16.00;41.96;98429.97;5114440;28;42616;-85
2024/03/23 10:22:49;;;;;;;1.93;1.27;;;;;;;17.79;40.38;98449.47;5115718;28;41214;-80
2024/03/23 10:25:19;;;;;;;3.57;1.50;;;;;;;18.52;37.90;98481.50;5117493;28;41300;-81
2024/03/23 10:27:58;;;;;;;3.07;1.20;;;;;;;19.95;36.58;98463.84;5124964;27;42242;-81
2024/03/23 10:30:27;;;;;;;2.73;1.40;;;;;;;22.05;34.31;98505.00;5095812;28;41832;-79
2024/03/23 10:33:07;;;;;;;1.43;0.80;;;;;;;25.35;30.85;98503.06;5093273;28;41804;-82
2024/03/23 10:35:34;;;;;;;2.10;1.00;;;;;;;26.34;28.96;98519.03;5122786;27;38425;-82
2024/03/23 10:38:04;;;;;;;1.80;0.93;;;;;;;27.23;27.89;98511.44;5113799;28;41496;-81
2024/03/23 10:40:35;;;;;;;1.83;1.00;;;;;;;27.98;26.64;98504.59;5113932;28;43395;-81
2024/03/23 10:43:03;;;;;;;2.17;1.10;;;;;;;26.58;27.37;98512.22;5097237;28;42284;-80
2024/03/23 10:45:31;;;;;;;2.40;1.40;;;;;;;26.26;27.77;98505.63;5096925;28;39829;-81
2024/03/23 10:47:58;;;;;;;3.17;1.03;;;;;;;24.82;28.33;98492.84;5091772;28;41069;-81
2024/03/23 10:50:26;;;;;;;2.43;1.40;;;;;;;23.43;29.18;98491.19;5094044;28;42988;-80
2024/03/23 10:52:55;;;;;;;2.03;1.20;;;;;;;23.15;28.89;98488.28;5093442;28;42348;-80
2024/03/23 10:55:24;;;;;;;2.40;1.50;;;;;;;24.44;27.80;98485.00;5110392;28;40997;-82
2024/03/23 10:57:54;;;;;;;2.13;1.40;;;;;;;23.33;28.71;98479.00;5094614;28;42136;-81
2024/03/23 11:00:23;;;;;;;2.67;1.53;;;;;;;22.39;29.29;98473.06;5094089;28;43718;-81
2024/03/23 11:02:49;;;;;;;2.90;1.30;;;;;;;22.18;29.63;98483.66;5093355;28;41479;-79
2024/03/23 11:05:30;;;;;;;4.00;1.30;;;;;;;22.31;29.35;98483.09;5093306;28;39891;-78
2024/03/23 11:07:56;;;;;;;2.00;1.50;;;;;;;21.31;29.40;98477.47;5076266;28;42689;-83
2024/03/23 11:10:26;;;;;;;3.30;1.60;;;;;;;21.42;30.71;98465.50;5094003;28;43454;-82
2024/03/23 11:12:55;;;;;;;3.33;1.60;;;;;;;23.05;29.75;98474.22;5127947;27;42590;-79
2024/03/23 11:15:22;;;;;;;3.20;1.40;;;;;;;22.30;27.93;98487.63;5093351;28;39259;-77
2024/03/23 11:18:20;;;;;;;2.27;1.40;;;;;;;21.21;29.27;98468.75;5094328;28;42100;-80
2024/03/23 11:20:47;;;;;;;2.70;1.27;;;;;;;20.63;30.29;98463.63;5067465;28;43800;-81
2024/03/23 11:23:27;;;;;;;2.40;1.40;;;;;;;20.13;31.10;98461.03;5094150;28;43387;-80
2024/03/23 11:25:54;;;;;;;2.07;1.20;;;;;;;19.64;32.07;98442.94;5075675;28;39267;-78
2024/03/23 11:28:22;;;;;;;2.73;1.50;;;;;;;19.41;32.11;98439.09;5092817;28;43012;-81
2024/03/23 11:30:50;;;;;;;3.90;1.67;;;;;;;19.36;32.97;98446.81;5093340;28;43496;-81
2024/03/23 11:33:17;;;;;;;3.43;1.83;;;;;;;19.42;32.65;98446.16;5074968;28;42216;-77
2024/03/23 11:35:45;;;;;;;4.80;1.60;;;;;;;20.26;32.81;98442.56;5074391;28;40891;-83
2024/03/23 11:38:13;;;;;;;3.33;1.30;;;;;;;21.21;31.03;98443.69;5091715;28;41154;-82